sensor_id;sensor_type;location;lat;lon;timestamp;pressure;altitude;pressure_sealevel;temperature;humidity
42385;BME280;28042;43.986;22.860;2022-12-11T00:00:37;99062.75;;;7.35;100.00
42385;BME280;28042;43.986;22.860;2022-12-11T00:03:03;99041.03;;;7.42;100.00
42385;BME280;28042;43.986;22.860;2022-12-11T00:05:28;99038.91;;;7.44;100.00
42385;BME280;28042;43.986;22.860;2022-12-11T00:07:53;99040.66;;;7.39;100.00
42385;BME280;28042;43.986;22.860;2022-12-11T00:10:19;99049.16;;;7.42;100.00
42385;BME280;28042;43.986;22.860;2022-12-11T00:12:44;99069.38;;;7.46;100.00
42385;BME280;28042;43.986;22.860;2022-12-11T00:15:09;99062.53;;;7.37;100.00
42385;BME280;28042;43.986;22.860;2022-12-11T00:17:35;99049.44;;;7.27;100.00
42385;BME280;28042;43.986;22.860;2022-12-11T00:20:00;99041.56;;;7.19;100.00
42385;BME280;28042;43.986;22.860;2022-12-11T00:22:25;99043.47;;;7.12;100.00
42385;BME280;28042;43.986;22.860;2022-12-11T00:24:51;99040.31;;;7.22;100.00
42385;BME280;28042;43.986;22.860;2022-12-11T00:27:16;99034.00;;;7.28;100.00
42385;BME280;28042;43.986;22.860;2022-12-11T00:29:41;99039.03;;;7.31;100.00
42385;BME280;28042;43.986;22.860;2022-12-11T00:32:07;99027.97;;;7.26;100.00
42385;BME280;28042;43.986;22.860;2022-12-11T00:34:32;99018.38;;;7.30;100.00
42385;BME280;28042;43.986;22.860;2022-12-11T00:36:57;99016.94;;;7.21;100.00
42385;BME280;28042;43.986;22.860;2022-12-11T00:39:23;99002.28;;;7.28;100.00
42385;BME280;28042;43.986;22.860;2022-12-11T00:41:48;98997.69;;;7.29;100.00
42385;BME280;28042;43.986;22.860;2022-12-11T00:44:13;98995.19;;;7.34;100.00
42385;BME280;28042;43.986;22.860;2022-12-11T00:46:39;98989.94;;;7.39;100.00
42385;BME280;28042;43.986;22.860;2022-12-11T00:49:04;98986.78;;;7.42;100.00
42385;BME280;28042;43.986;22.860;2022-12-11T00:51:29;98975.06;;;7.48;100.00
42385;BME280;28042;43.986;22.860;2022-12-11T00:53:55;98992.00;;;7.37;100.00
42385;BME280;28042;43.986;22.860;2022-12-11T00:56:20;98993.06;;;7.36;100.00
42385;BME280;28042;43.986;22.860;2022-12-11T00:58:47;98982.25;;;7.29;100.00
42385;BME280;28042;43.986;22.860;2022-12-11T01:01:14;98969.81;;;7.22;100.00
42385;BME280;28042;43.986;22.860;2022-12-11T01:03:40;98980.41;;;7.30;100.00
42385;BME280;28042;43.986;22.860;2022-12-11T01:06:05;98970.38;;;7.30;100.00
42385;BME280;28042;43.986;22.860;2022-12-11T01:08:31;98965.59;;;7.26;100.00
42385;BME280;28042;43.986;22.860;2022-12-11T01:11:00;98964.50;;;7.33;100.00
42385;BME280;28042;43.986;22.860;2022-12-11T01:13:26;98952.22;;;7.31;100.00
42385;BME280;28042;43.986;22.860;2022-12-11T01:15:51;98966.34;;;7.40;100.00
42385;BME280;28042;43.986;22.860;2022-12-11T01:18:16;98958.72;;;7.30;100.00
42385;BME280;28042;43.986;22.860;2022-12-11T01:20:41;98959.72;;;7.29;100.00
42385;BME280;28042;43.986;22.860;2022-12-11T01:23:07;98954.75;;;7.26;100.00
42385;BME280;28042;43.986;22.860;2022-12-11T01:25:34;98958.06;;;7.28;100.00
42385;BME280;28042;43.986;22.860;2022-12-11T01:27:59;98956.41;;;7.27;100.00
42385;BME280;28042;43.986;22.860;2022-12-11T01:30:27;98958.97;;;7.22;100.00
42385;BME280;28042;43.986;22.860;2022-12-11T01:32:53;98957.72;;;7.18;100.00
42385;BME280;28042;43.986;22.860;2022-12-11T01:35:18;98950.66;;;7.17;100.00
42385;BME280;28042;43.986;22.860;2022-12-11T01:37:44;98947.09;;;7.16;100.00
42385;BME280;28042;43.986;22.860;2022-12-11T01:40:11;98957.38;;;7.07;100.00
42385;BME280;28042;43.986;22.860;2022-12-11T01:42:37;98973.03;;;7.05;100.00
42385;BME280;28042;43.986;22.860;2022-12-11T01:47:46;98979.56;;;6.98;100.00
42385;BME280;28042;43.986;22.860;2022-12-11T01:50:12;98986.25;;;6.95;100.00
42385;BME280;28042;43.986;22.860;2022-12-11T01:52:38;98969.53;;;6.98;100.00
42385;BME280;28042;43.986;22.860;2022-12-11T01:55:04;98976.84;;;6.98;100.00
42385;BME280;28042;43.986;22.860;2022-12-11T01:57:29;98967.84;;;7.04;100.00
42385;BME280;28042;43.986;22.860;2022-12-11T01:59:55;98981.19;;;7.05;100.00
42385;BME280;28042;43.986;22.860;2022-12-11T02:02:21;98979.06;;;7.07;100.00
42385;BME280;28042;43.986;22.860;2022-12-11T02:04:48;98994.91;;;7.11;100.00
42385;BME280;28042;43.986;22.860;2022-12-11T02:07:14;98957.34;;;7.14;100.00
42385;BME280;28042;43.986;22.860;2022-12-11T02:09:40;98952.53;;;7.16;100.00
42385;BME280;28042;43.986;22.860;2022-12-11T02:17:32;98956.41;;;7.27;100.00
42385;BME280;28042;43.986;22.860;2022-12-11T02:19:57;98938.03;;;7.29;100.00
42385;BME280;28042;43.986;22.860;2022-12-11T02:27:44;98931.78;;;7.28;100.00
42385;BME280;28042;43.986;22.860;2022-12-11T02:30:12;98947.56;;;7.38;100.00
42385;BME280;28042;43.986;22.860;2022-12-11T02:32:41;98920.44;;;7.38;100.00
42385;BME280;28042;43.986;22.860;2022-12-11T02:35:09;98913.34;;;7.37;100.00
42385;BME280;28042;43.986;22.860;2022-12-11T02:37:37;98950.72;;;7.35;100.00
42385;BME280;28042;43.986;22.860;2022-12-11T02:40:04;98965.13;;;7.35;100.00
42385;BME280;28042;43.986;22.860;2022-12-11T02:42:31;98948.63;;;7.37;100.00
42385;BME280;28042;43.986;22.860;2022-12-11T02:44:58;98937.16;;;7.35;100.00
42385;BME280;28042;43.986;22.860;2022-12-11T02:47:24;98932.16;;;7.39;100.00
42385;BME280;28042;43.986;22.860;2022-12-11T02:49:51;98957.19;;;7.34;100.00
42385;BME280;28042;43.986;22.860;2022-12-11T02:52:19;98951.59;;;7.29;100.00
42385;BME280;28042;43.986;22.860;2022-12-11T02:54:46;98953.94;;;7.25;100.00
42385;BME280;28042;43.986;22.860;2022-12-11T02:57:21;98954.69;;;7.39;100.00
42385;BME280;28042;43.986;22.860;2022-12-11T02:59:48;98949.59;;;7.49;100.00
42385;BME280;28042;43.986;22.860;2022-12-11T03:02:14;98957.50;;;7.51;100.00
42385;BME280;28042;43.986;22.860;2022-12-11T03:04:40;98950.84;;;7.47;100.00
42385;BME280;28042;43.986;22.860;2022-12-11T03:07:07;98953.50;;;7.53;100.00
42385;BME280;28042;43.986;22.860;2022-12-11T03:09:40;98956.66;;;7.50;100.00
42385;BME280;28042;43.986;22.860;2022-12-11T03:12:06;98960.09;;;7.39;100.00
42385;BME280;28042;43.986;22.860;2022-12-11T03:14:34;98959.19;;;7.45;100.00
42385;BME280;28042;43.986;22.860;2022-12-11T03:19:45;98947.66;;;7.56;100.00
42385;BME280;28042;43.986;22.860;2022-12-11T03:22:14;98960.59;;;7.54;100.00
42385;BME280;28042;43.986;22.860;2022-12-11T03:24:51;98971.09;;;7.44;100.00
42385;BME280;28042;43.986;22.860;2022-12-11T03:29:59;99018.56;;;7.28;100.00
42385;BME280;28042;43.986;22.860;2022-12-11T03:32:30;99015.69;;;7.23;100.00
42385;BME280;28042;43.986;22.860;2022-12-11T03:35:03;99036.97;;;7.20;100.00
42385;BME280;28042;43.986;22.860;2022-12-11T03:37:31;99041.78;;;7.18;100.00
42385;BME280;28042;43.986;22.860;2022-12-11T03:39:58;99034.09;;;7.15;100.00
42385;BME280;28042;43.986;22.860;2022-12-11T03:42:26;99029.88;;;7.19;100.00
42385;BME280;28042;43.986;22.860;2022-12-11T03:44:51;99021.97;;;7.17;100.00
42385;BME280;28042;43.986;22.860;2022-12-11T03:47:19;99020.09;;;7.18;100.00
42385;BME280;28042;43.986;22.860;2022-12-11T03:49:46;99024.91;;;7.16;100.00
42385;BME280;28042;43.986;22.860;2022-12-11T03:52:12;99020.69;;;7.20;100.00
42385;BME280;28042;43.986;22.860;2022-12-11T03:54:39;99024.06;;;7.22;100.00
42385;BME280;28042;43.986;22.860;2022-12-11T03:57:05;99029.03;;;7.25;100.00
42385;BME280;28042;43.986;22.860;2022-12-11T03:59:32;99026.91;;;7.33;100.00
42385;BME280;28042;43.986;22.860;2022-12-11T04:01:57;99011.63;;;7.39;100.00
42385;BME280;28042;43.986;22.860;2022-12-11T04:04:23;99011.38;;;7.47;100.00
42385;BME280;28042;43.986;22.860;2022-12-11T04:06:48;99015.75;;;7.48;100.00
42385;BME280;28042;43.986;22.860;2022-12-11T04:09:14;99025.47;;;7.31;100.00
42385;BME280;28042;43.986;22.860;2022-12-11T04:11:39;99029.88;;;7.19;100.00
42385;BME280;28042;43.986;22.860;2022-12-11T04:14:11;99034.09;;;7.15;100.00
42385;BME280;28042;43.986;22.860;2022-12-11T04:16:56;99048.72;;;7.07;100.00
42385;BME280;28042;43.986;22.860;2022-12-11T04:19:22;99046.59;;;7.16;100.00
42385;BME280;28042;43.986;22.860;2022-12-11T04:22:06;99030.78;;;7.13;100.00
42385;BME280;28042;43.986;22.860;2022-12-11T04:24:50;99029.09;;;7.12;100.00
42385;BME280;28042;43.986;22.860;2022-12-11T04:27:16;99048.50;;;7.08;100.00
42385;BME280;28042;43.986;22.860;2022-12-11T04:30:00;99026.00;;;7.08;100.00
42385;BME280;28042;43.986;22.860;2022-12-11T04:32:25;99030.78;;;7.13;100.00
42385;BME280;28042;43.986;22.860;2022-12-11T04:34:51;99028.69;;;7.15;100.00
42385;BME280;28042;43.986;22.860;2022-12-11T04:37:16;99030.56;;;7.14;100.00
42385;BME280;28042;43.986;22.860;2022-12-11T04:39:41;99033.66;;;7.18;100.00
42385;BME280;28042;43.986;22.860;2022-12-11T04:42:07;99032.00;;;7.17;100.00
42385;BME280;28042;43.986;22.860;2022-12-11T04:44:32;99024.47;;;7.19;100.00
42385;BME280;28042;43.986;22.860;2022-12-11T04:46:57;99030.50;;;7.21;100.00
42385;BME280;28042;43.986;22.860;2022-12-11T04:49:23;99033.41;;;7.26;100.00
42385;BME280;28042;43.986;22.860;2022-12-11T04:51:48;99044.25;;;7.26;100.00
42385;BME280;28042;43.986;22.860;2022-12-11T04:54:13;99042.78;;;7.30;100.00
42385;BME280;28042;43.986;22.860;2022-12-11T04:56:39;99045.66;;;7.35;100.00
42385;BME280;28042;43.986;22.860;2022-12-11T04:59:04;99051.88;;;7.42;100.00
42385;BME280;28042;43.986;22.860;2022-12-11T05:01:29;99066.06;;;7.44;100.00
42385;BME280;28042;43.986;22.860;2022-12-11T05:03:55;99091.06;;;7.46;100.00
42385;BME280;28042;43.986;22.860;2022-12-11T05:06:22;99106.94;;;7.49;100.00
42385;BME280;28042;43.986;22.860;2022-12-11T05:08:47;99101.06;;;7.52;100.00
42385;BME280;28042;43.986;22.860;2022-12-11T05:11:13;99100.19;;;7.58;100.00
42385;BME280;28042;43.986;22.860;2022-12-11T05:13:40;99113.69;;;7.72;100.00
42385;BME280;28042;43.986;22.860;2022-12-11T05:16:06;99123.03;;;7.82;100.00
42385;BME280;28042;43.986;22.860;2022-12-11T05:18:31;99112.72;;;7.91;100.00
42385;BME280;28042;43.986;22.860;2022-12-11T05:20:58;99112.88;;;7.96;100.00
42385;BME280;28042;43.986;22.860;2022-12-11T05:23:24;99134.59;;;7.96;100.00
42385;BME280;28042;43.986;22.860;2022-12-11T05:26:00;99125.84;;;7.94;100.00
42385;BME280;28042;43.986;22.860;2022-12-11T05:28:26;99131.75;;;7.91;100.00
42385;BME280;28042;43.986;22.860;2022-12-11T05:30:59;99114.81;;;7.89;100.00
42385;BME280;28042;43.986;22.860;2022-12-11T05:33:25;99110.09;;;7.78;100.00
42385;BME280;28042;43.986;22.860;2022-12-11T05:35:50;99112.63;;;7.73;100.00
42385;BME280;28042;43.986;22.860;2022-12-11T05:38:16;99114.50;;;7.72;100.00
42385;BME280;28042;43.986;22.860;2022-12-11T05:40:41;99124.19;;;7.61;100.00
42385;BME280;28042;43.986;22.860;2022-12-11T05:43:07;99128.81;;;7.54;100.00
42385;BME280;28042;43.986;22.860;2022-12-11T05:45:32;99139.50;;;7.49;100.00
42385;BME280;28042;43.986;22.860;2022-12-11T05:47:58;99145.78;;;7.43;100.00
42385;BME280;28042;43.986;22.860;2022-12-11T05:50:24;99154.56;;;7.39;100.00
42385;BME280;28042;43.986;22.860;2022-12-11T05:52:49;99166.66;;;7.36;100.00
42385;BME280;28042;43.986;22.860;2022-12-11T05:55:14;99169.22;;;7.31;100.00
42385;BME280;28042;43.986;22.860;2022-12-11T05:57:40;99172.97;;;7.30;100.00
42385;BME280;28042;43.986;22.860;2022-12-11T06:00:05;99184.66;;;7.24;100.00
42385;BME280;28042;43.986;22.860;2022-12-11T06:02:33;99183.00;;;7.23;100.00
42385;BME280;28042;43.986;22.860;2022-12-11T06:04:58;99194.69;;;7.23;100.00
42385;BME280;28042;43.986;22.860;2022-12-11T06:07:24;99201.34;;;7.21;100.00
42385;BME280;28042;43.986;22.860;2022-12-11T06:09:49;99206.38;;;7.17;100.00
42385;BME280;28042;43.986;22.860;2022-12-11T06:12:14;99227.00;;;7.18;100.00
42385;BME280;28042;43.986;22.860;2022-12-11T06:14:40;99223.91;;;7.15;100.00
42385;BME280;28042;43.986;22.860;2022-12-11T06:17:05;99229.75;;;7.12;100.00
42385;BME280;28042;43.986;22.860;2022-12-11T06:19:30;99226.41;;;7.09;100.00
42385;BME280;28042;43.986;22.860;2022-12-11T06:21:56;99226.63;;;7.08;100.00
42385;BME280;28042;43.986;22.860;2022-12-11T06:24:21;99229.56;;;7.06;100.00
42385;BME280;28042;43.986;22.860;2022-12-11T06:26:46;99245.22;;;7.04;100.00
42385;BME280;28042;43.986;22.860;2022-12-11T06:29:12;99227.69;;;7.00;100.00
42385;BME280;28042;43.986;22.860;2022-12-11T06:31:37;99227.47;;;7.02;100.00
42385;BME280;28042;43.986;22.860;2022-12-11T06:34:02;99221.63;;;6.98;100.00
42385;BME280;28042;43.986;22.860;2022-12-11T06:36:27;99223.09;;;6.94;100.00
42385;BME280;28042;43.986;22.860;2022-12-11T06:38:53;99238.53;;;6.94;100.00
42385;BME280;28042;43.986;22.860;2022-12-11T06:41:19;99229.34;;;6.95;100.00
42385;BME280;28042;43.986;22.860;2022-12-11T06:43:44;99241.06;;;6.95;100.00
42385;BME280;28042;43.986;22.860;2022-12-11T06:46:11;99243.34;;;6.92;100.00
42385;BME280;28042;43.986;22.860;2022-12-11T06:48:36;99253.56;;;6.90;100.00
42385;BME280;28042;43.986;22.860;2022-12-11T06:51:05;99257.09;;;6.90;100.00
42385;BME280;28042;43.986;22.860;2022-12-11T06:53:31;99265.84;;;6.92;100.00
42385;BME280;28042;43.986;22.860;2022-12-11T06:56:00;99279.00;;;6.89;100.00
42385;BME280;28042;43.986;22.860;2022-12-11T06:58:26;99274.81;;;6.86;100.00
42385;BME280;28042;43.986;22.860;2022-12-11T07:00:51;99283.16;;;6.85;100.00
42385;BME280;28042;43.986;22.860;2022-12-11T07:03:16;99282.31;;;6.84;100.00
42385;BME280;28042;43.986;22.860;2022-12-11T07:05:41;99291.50;;;6.83;100.00
42385;BME280;28042;43.986;22.860;2022-12-11T07:08:07;99295.88;;;6.77;100.00
42385;BME280;28042;43.986;22.860;2022-12-11T07:10:32;99299.44;;;6.78;100.00
42385;BME280;28042;43.986;22.860;2022-12-11T07:12:57;99315.88;;;6.76;100.00
42385;BME280;28042;43.986;22.860;2022-12-11T07:15:23;99311.50;;;6.82;100.00
42385;BME280;28042;43.986;22.860;2022-12-11T07:17:48;99322.97;;;6.84;100.00
42385;BME280;28042;43.986;22.860;2022-12-11T07:20:13;99326.94;;;6.88;100.00
42385;BME280;28042;43.986;22.860;2022-12-11T07:22:39;99337.59;;;6.90;100.00
42385;BME280;28042;43.986;22.860;2022-12-11T07:25:04;99344.25;;;6.94;100.00
42385;BME280;28042;43.986;22.860;2022-12-11T07:27:30;99349.47;;;6.95;100.00
42385;BME280;28042;43.986;22.860;2022-12-11T07:29:55;99349.69;;;7.00;100.00
42385;BME280;28042;43.986;22.860;2022-12-11T07:32:20;99359.50;;;7.15;100.00
42385;BME280;28042;43.986;22.860;2022-12-11T07:34:49;99367.00;;;7.26;100.00
42385;BME280;28042;43.986;22.860;2022-12-11T07:37:15;99363.84;;;7.29;100.00
42385;BME280;28042;43.986;22.860;2022-12-11T07:39:40;99367.81;;;7.33;100.00
42385;BME280;28042;43.986;22.860;2022-12-11T07:42:05;99370.72;;;7.51;100.00
42385;BME280;28042;43.986;22.860;2022-12-11T07:44:30;99378.00;;;7.71;100.00
42385;BME280;28042;43.986;22.860;2022-12-11T07:46:56;99389.06;;;7.76;100.00
42385;BME280;28042;43.986;22.860;2022-12-11T07:49:21;99393.22;;;7.72;100.00
42385;BME280;28042;43.986;22.860;2022-12-11T07:51:46;99399.94;;;7.62;100.00
42385;BME280;28042;43.986;22.860;2022-12-11T07:54:12;99415.81;;;7.52;100.00
42385;BME280;28042;43.986;22.860;2022-12-11T07:56:40;99417.06;;;7.30;100.00
42385;BME280;28042;43.986;22.860;2022-12-11T07:59:05;99417.06;;;7.17;100.00
42385;BME280;28042;43.986;22.860;2022-12-11T08:01:32;99413.91;;;7.20;100.00
42385;BME280;28042;43.986;22.860;2022-12-11T08:03:59;99424.56;;;7.28;100.00
42385;BME280;28042;43.986;22.860;2022-12-11T08:06:25;99422.50;;;7.43;100.00
42385;BME280;28042;43.986;22.860;2022-12-11T08:08:52;99425.22;;;7.30;100.00
42385;BME280;28042;43.986;22.860;2022-12-11T08:11:17;99435.22;;;7.23;100.00
42385;BME280;28042;43.986;22.860;2022-12-11T08:13:43;99440.44;;;7.31;100.00
42385;BME280;28042;43.986;22.860;2022-12-11T08:16:09;99442.72;;;7.34;100.00
42385;BME280;28042;43.986;22.860;2022-12-11T08:18:35;99442.94;;;7.32;100.00
42385;BME280;28042;43.986;22.860;2022-12-11T08:21:08;99442.53;;;7.35;100.00
42385;BME280;28042;43.986;22.860;2022-12-11T08:23:34;99442.94;;;7.26;100.00
42385;BME280;28042;43.986;22.860;2022-12-11T08:26:06;99445.03;;;7.24;100.00
42385;BME280;28042;43.986;22.860;2022-12-11T08:28:32;99444.19;;;7.17;100.00
42385;BME280;28042;43.986;22.860;2022-12-11T08:30:58;99452.09;;;7.12;100.00
42385;BME280;28042;43.986;22.860;2022-12-11T08:33:23;99457.13;;;7.15;100.00
42385;BME280;28042;43.986;22.860;2022-12-11T08:35:49;99482.09;;;7.03;100.00
42385;BME280;28042;43.986;22.860;2022-12-11T08:38:14;99487.13;;;7.06;100.00
42385;BME280;28042;43.986;22.860;2022-12-11T08:40:40;99490.88;;;7.05;100.00
42385;BME280;28042;43.986;22.860;2022-12-11T08:43:05;99499.63;;;7.01;100.00
42385;BME280;28042;43.986;22.860;2022-12-11T08:45:31;99502.75;;;6.98;100.00
42385;BME280;28042;43.986;22.860;2022-12-11T08:47:57;99513.56;;;6.91;100.00
42385;BME280;28042;43.986;22.860;2022-12-11T08:50:22;99510.00;;;6.84;100.00
42385;BME280;28042;43.986;22.860;2022-12-11T08:52:48;99503.53;;;6.85;100.00
42385;BME280;28042;43.986;22.860;2022-12-11T08:55:13;99495.41;;;6.85;100.00
42385;BME280;28042;43.986;22.860;2022-12-11T08:57:38;99504.19;;;6.87;100.00
42385;BME280;28042;43.986;22.860;2022-12-11T09:00:05;99504.19;;;6.87;100.00
42385;BME280;28042;43.986;22.860;2022-12-11T09:02:30;99498.75;;;6.87;100.00
42385;BME280;28042;43.986;22.860;2022-12-11T09:04:55;99496.84;;;6.81;100.00
42385;BME280;28042;43.986;22.860;2022-12-11T09:07:21;99503.72;;;6.77;100.00
42385;BME280;28042;43.986;22.860;2022-12-11T09:09:46;99513.09;;;6.74;100.00
42385;BME280;28042;43.986;22.860;2022-12-11T09:12:11;99516.00;;;6.73;100.00
42385;BME280;28042;43.986;22.860;2022-12-11T09:14:37;99513.28;;;6.73;100.00
42385;BME280;28042;43.986;22.860;2022-12-11T09:17:03;99499.03;;;6.58;100.00
42385;BME280;28042;43.986;22.860;2022-12-11T09:19:29;99496.16;;;6.66;100.00
42385;BME280;28042;43.986;22.860;2022-12-11T09:21:54;99502.97;;;6.48;100.00
42385;BME280;28042;43.986;22.860;2022-12-11T09:24:20;99500.25;;;6.48;100.00
42385;BME280;28042;43.986;22.860;2022-12-11T09:26:45;99505.28;;;6.51;100.00
42385;BME280;28042;43.986;22.860;2022-12-11T09:29:11;99518.19;;;6.49;100.00
42385;BME280;28042;43.986;22.860;2022-12-11T09:31:36;99531.88;;;6.41;100.00
42385;BME280;28042;43.986;22.860;2022-12-11T09:34:03;99538.13;;;6.35;100.00
42385;BME280;28042;43.986;22.860;2022-12-11T09:36:29;99541.06;;;6.40;100.00
42385;BME280;28042;43.986;22.860;2022-12-11T09:38:54;99551.22;;;6.32;100.00
42385;BME280;28042;43.986;22.860;2022-12-11T09:43:47;99537.91;;;6.37;100.00
42385;BME280;28042;43.986;22.860;2022-12-11T09:46:14;99528.13;;;6.42;100.00
42385;BME280;28042;43.986;22.860;2022-12-11T09:48:40;99538.59;;;6.45;100.00
42385;BME280;28042;43.986;22.860;2022-12-11T09:51:12;99524.81;;;6.40;100.00
42385;BME280;28042;43.986;22.860;2022-12-11T09:53:38;99524.00;;;6.46;100.00
42385;BME280;28042;43.986;22.860;2022-12-11T09:59:05;99533.75;;;6.41;100.00
42385;BME280;28042;43.986;22.860;2022-12-11T10:11:42;99538.94;;;6.08;100.00
42385;BME280;28042;43.986;22.860;2022-12-11T10:16:46;99556.53;;;5.90;100.00
42385;BME280;28042;43.986;22.860;2022-12-11T10:19:18;99549.81;;;5.86;100.00
42385;BME280;28042;43.986;22.860;2022-12-11T10:21:44;99544.00;;;5.89;100.00
42385;BME280;28042;43.986;22.860;2022-12-11T10:24:13;99545.22;;;5.87;100.00
42385;BME280;28042;43.986;22.860;2022-12-11T10:26:40;99550.25;;;5.90;100.00
42385;BME280;28042;43.986;22.860;2022-12-11T10:29:09;99545.03;;;5.88;100.00
42385;BME280;28042;43.986;22.860;2022-12-11T10:31:40;99549.16;;;6.06;100.00
42385;BME280;28042;43.986;22.860;2022-12-11T10:34:11;99541.34;;;6.17;100.00
42385;BME280;28042;43.986;22.860;2022-12-11T10:36:38;99536.34;;;6.21;100.00
42385;BME280;28042;43.986;22.860;2022-12-11T10:39:11;99548.91;;;6.29;100.00
42385;BME280;28042;43.986;22.860;2022-12-11T10:41:39;99524.75;;;6.27;100.00
42385;BME280;28042;43.986;22.860;2022-12-11T10:46:39;99527.13;;;6.43;100.00
42385;BME280;28042;43.986;22.860;2022-12-11T10:49:04;99536.09;;;6.50;100.00
42385;BME280;28042;43.986;22.860;2022-12-11T10:53:56;99538.72;;;6.72;100.00
42385;BME280;28042;43.986;22.860;2022-12-11T10:56:28;99533.91;;;6.67;100.00
42385;BME280;28042;43.986;22.860;2022-12-11T10:58:55;99531.91;;;6.89;100.00
42385;BME280;28042;43.986;22.860;2022-12-11T11:01:26;99532.13;;;6.94;100.00
42385;BME280;28042;43.986;22.860;2022-12-11T11:06:35;99538.19;;;6.96;100.00
42385;BME280;28042;43.986;22.860;2022-12-11T11:09:01;99531.28;;;6.94;100.00
42385;BME280;28042;43.986;22.860;2022-12-11T11:11:34;99531.13;;;6.95;100.00
42385;BME280;28042;43.986;22.860;2022-12-11T11:14:16;99535.94;;;7.06;100.00
42385;BME280;28042;43.986;22.860;2022-12-11T11:16:43;99530.16;;;7.36;100.00
42385;BME280;28042;43.986;22.860;2022-12-11T11:19:17;99529.75;;;7.39;100.00
42385;BME280;28042;43.986;22.860;2022-12-11T11:21:53;99535.81;;;7.41;99.84
42385;BME280;28042;43.986;22.860;2022-12-11T11:24:42;99525.75;;;7.22;92.54
42385;BME280;28042;43.986;22.860;2022-12-11T11:29:45;99519.03;;;7.04;94.16
42385;BME280;28042;43.986;22.860;2022-12-11T11:32:16;99524.25;;;7.06;94.22
42385;BME280;28042;43.986;22.860;2022-12-11T11:34:42;99527.19;;;7.04;94.69
42385;BME280;28042;43.986;22.860;2022-12-11T11:37:21;99533.38;;;6.92;94.53
42385;BME280;28042;43.986;22.860;2022-12-11T11:39:46;99529.16;;;6.83;96.63
42385;BME280;28042;43.986;22.860;2022-12-11T11:42:14;99539.19;;;6.82;98.55
42385;BME280;28042;43.986;22.860;2022-12-11T11:44:43;99550.81;;;6.76;95.60
42385;BME280;28042;43.986;22.860;2022-12-11T11:49:43;99536.72;;;6.87;97.21
42385;BME280;28042;43.986;22.860;2022-12-11T11:55:07;99545.03;;;6.79;93.09
42385;BME280;28042;43.986;22.860;2022-12-11T11:57:39;99541.66;;;6.77;94.57
42385;BME280;28042;43.986;22.860;2022-12-11T12:00:16;99538.56;;;6.80;94.75
42385;BME280;28042;43.986;22.860;2022-12-11T12:02:42;99544.41;;;6.84;95.83
42385;BME280;28042;43.986;22.860;2022-12-11T12:05:11;99543.78;;;6.82;94.71
42385;BME280;28042;43.986;22.860;2022-12-11T12:07:45;99548.34;;;6.81;95.80
42385;BME280;28042;43.986;22.860;2022-12-11T12:10:20;99547.09;;;6.84;95.66
42385;BME280;28042;43.986;22.860;2022-12-11T12:15:25;99562.25;;;6.65;92.82
42385;BME280;28042;43.986;22.860;2022-12-11T12:17:54;99554.69;;;6.54;92.93
42385;BME280;28042;43.986;22.860;2022-12-11T12:36:16;99565.84;;;6.37;94.96
42385;BME280;28042;43.986;22.860;2022-12-11T12:43:47;99573.84;;;6.24;93.16
42385;BME280;28042;43.986;22.860;2022-12-11T12:49:00;99575.44;;;6.12;92.96
42385;BME280;28042;43.986;22.860;2022-12-11T12:51:26;99580.81;;;6.05;93.32
42385;BME280;28042;43.986;22.860;2022-12-11T12:53:56;99579.06;;;5.98;92.95
42385;BME280;28042;43.986;22.860;2022-12-11T12:56:23;99580.75;;;5.99;93.71
42385;BME280;28042;43.986;22.860;2022-12-11T12:58:49;99576.81;;;6.01;97.28
42385;BME280;28042;43.986;22.860;2022-12-11T13:01:16;99593.41;;;5.91;97.71
42385;BME280;28042;43.986;22.860;2022-12-11T13:03:49;99588.09;;;5.83;96.57
42385;BME280;28042;43.986;22.860;2022-12-11T13:06:15;99603.16;;;5.71;96.78
42385;BME280;28042;43.986;22.860;2022-12-11T13:08:47;99593.78;;;5.67;97.90
42385;BME280;28042;43.986;22.860;2022-12-11T13:11:14;99610.50;;;5.56;98.32
42385;BME280;28042;43.986;22.860;2022-12-11T13:13:41;99607.75;;;5.49;99.45
42385;BME280;28042;43.986;22.860;2022-12-11T13:18:34;99622.78;;;5.37;100.00
42385;BME280;28042;43.986;22.860;2022-12-11T13:21:01;99623.38;;;5.32;100.00
42385;BME280;28042;43.986;22.860;2022-12-11T13:25:54;99622.63;;;5.24;100.00
42385;BME280;28042;43.986;22.860;2022-12-11T13:33:29;99638.13;;;5.15;100.00
42385;BME280;28042;43.986;22.860;2022-12-11T13:36:15;99651.00;;;5.13;100.00
42385;BME280;28042;43.986;22.860;2022-12-11T13:38:51;99654.69;;;5.12;100.00
42385;BME280;28042;43.986;22.860;2022-12-11T13:41:17;99655.69;;;5.04;100.00
42385;BME280;28042;43.986;22.860;2022-12-11T13:43:44;99652.13;;;5.04;100.00
42385;BME280;28042;43.986;22.860;2022-12-11T13:46:11;99662.47;;;5.00;100.00
42385;BME280;28042;43.986;22.860;2022-12-11T13:48:46;99669.84;;;4.92;100.00
42385;BME280;28042;43.986;22.860;2022-12-11T13:51:15;99668.53;;;4.88;100.00
42385;BME280;28042;43.986;22.860;2022-12-11T13:53:41;99674.38;;;4.76;100.00
42385;BME280;28042;43.986;22.860;2022-12-11T13:56:12;99675.22;;;4.77;100.00
42385;BME280;28042;43.986;22.860;2022-12-11T13:58:40;99674.13;;;4.71;100.00
42385;BME280;28042;43.986;22.860;2022-12-11T14:01:10;99668.44;;;4.66;100.00
42385;BME280;28042;43.986;22.860;2022-12-11T14:03:47;99668.44;;;4.66;100.00
42385;BME280;28042;43.986;22.860;2022-12-11T14:06:15;99670.66;;;4.63;100.00
42385;BME280;28042;43.986;22.860;2022-12-11T14:08:42;99664.44;;;4.62;100.00
42385;BME280;28042;43.986;22.860;2022-12-11T14:11:13;99673.56;;;4.61;100.00
42385;BME280;28042;43.986;22.860;2022-12-11T14:13:42;99672.53;;;4.62;100.00
42385;BME280;28042;43.986;22.860;2022-12-11T14:16:13;99672.03;;;4.59;100.00
42385;BME280;28042;43.986;22.860;2022-12-11T14:18:43;99674.28;;;4.55;100.00